createdAt,value
2022-10-09T00:01:47.946Z,11.01
2022-10-09T00:04:19.655Z,10.99
2022-10-09T00:06:51.416Z,10.96
2022-10-09T00:09:26.254Z,10.97
2022-10-09T00:11:57.915Z,10.95
2022-10-09T00:14:29.703Z,10.94
2022-10-09T00:17:01.427Z,10.93
2022-10-09T00:19:35.802Z,10.90
2022-10-09T00:22:07.490Z,10.89
2022-10-09T00:24:39.191Z,10.87
2022-10-09T00:27:10.898Z,10.84
2022-10-09T00:29:42.595Z,10.75
2022-10-09T00:32:17.811Z,10.69
2022-10-09T00:34:50.717Z,10.65
2022-10-09T00:37:24.387Z,10.65
2022-10-09T00:39:56.137Z,10.66
2022-10-09T00:42:27.832Z,10.64
2022-10-09T00:45:02.647Z,10.61
2022-10-09T00:47:49.367Z,10.61
2022-10-09T00:50:38.499Z,10.55
2022-10-09T00:53:15.788Z,10.55
2022-10-09T00:55:47.671Z,10.53
2022-10-09T00:58:19.796Z,10.50
2022-10-09T01:00:54.746Z,10.49
2022-10-09T01:03:26.336Z,10.48
2022-10-09T01:06:52.311Z,10.44
2022-10-09T01:09:32.404Z,10.41
2022-10-09T01:12:39.204Z,10.35
2022-10-09T01:15:27.684Z,10.31
2022-10-09T01:18:30.954Z,10.29
2022-10-09T01:21:18.244Z,10.22
2022-10-09T01:24:31.949Z,10.19
2022-10-09T01:27:09.166Z,10.19
2022-10-09T01:29:55.432Z,10.19
2022-10-09T01:32:37.460Z,10.18
2022-10-09T01:35:12.486Z,10.14
2022-10-09T01:37:48.029Z,10.14
2022-10-09T01:40:21.367Z,10.15
2022-10-09T01:42:53.477Z,10.13
2022-10-09T01:45:39.173Z,10.09
2022-10-09T01:48:23.750Z,10.08
2022-10-09T01:51:01.812Z,10.05
2022-10-09T01:53:36.737Z,10.03
2022-10-09T01:56:14.113Z,9.99
2022-10-09T01:59:18.868Z,9.95
2022-10-09T02:01:52.036Z,9.91
2022-10-09T02:04:24.728Z,9.86
2022-10-09T02:06:56.937Z,9.82
2022-10-09T02:09:30.272Z,9.80
2022-10-09T02:12:07.383Z,9.80
2022-10-09T02:14:39.575Z,9.77
2022-10-09T02:17:21.888Z,9.75
2022-10-09T02:20:08.398Z,9.71
2022-10-09T02:22:41.085Z,9.67
2022-10-09T02:25:13.419Z,9.67
2022-10-09T02:27:46.859Z,9.65
2022-10-09T02:30:20.858Z,9.61
2022-10-09T02:32:53.701Z,9.59
2022-10-09T02:35:25.990Z,9.57
2022-10-09T02:37:57.713Z,9.57
2022-10-09T02:40:29.693Z,9.54
2022-10-09T02:43:02.269Z,9.56
2022-10-09T02:45:36.838Z,9.59
2022-10-09T02:48:12.211Z,9.63
2022-10-09T02:50:43.912Z,9.63
2022-10-09T02:53:15.572Z,9.64
2022-10-09T02:55:47.265Z,9.62
2022-10-09T02:58:19.088Z,9.64
2022-10-09T03:00:53.031Z,9.63
2022-10-09T03:03:24.801Z,9.57
2022-10-09T03:06:13.769Z,9.55
2022-10-09T03:08:47.562Z,9.53
2022-10-09T03:11:21.464Z,9.49
2022-10-09T03:13:56.253Z,9.47
2022-10-09T03:16:27.918Z,9.45
2022-10-09T03:19:00.154Z,9.43
2022-10-09T03:21:31.844Z,9.42
2022-10-09T03:24:03.589Z,9.43
2022-10-09T03:26:35.258Z,9.42
2022-10-09T03:29:06.944Z,9.40
2022-10-09T03:31:54.087Z,9.36
2022-10-09T03:34:27.943Z,9.30
2022-10-09T03:36:59.519Z,9.28
2022-10-09T03:39:31.581Z,9.27
2022-10-09T03:42:03.360Z,9.25
2022-10-09T03:44:35.076Z,9.21
2022-10-09T03:47:07.255Z,9.17
2022-10-09T03:49:38.931Z,9.19
2022-10-09T03:52:10.590Z,9.18
2022-10-09T03:54:42.286Z,9.16
2022-10-09T03:57:15.940Z,9.12
2022-10-09T03:59:47.613Z,9.10
2022-10-09T04:02:19.325Z,9.10
2022-10-09T04:04:51.083Z,9.05
2022-10-09T04:07:28.114Z,9.04
2022-10-09T04:09:59.931Z,9.01
2022-10-09T04:12:31.697Z,8.98
2022-10-09T04:15:04.322Z,8.95
2022-10-09T04:17:36.525Z,8.93
2022-10-09T04:20:09.771Z,8.93
2022-10-09T04:22:41.592Z,8.89
2022-10-09T04:25:13.446Z,8.85
2022-10-09T04:27:45.157Z,8.83
2022-10-09T04:30:20.817Z,8.84
2022-10-09T04:32:52.579Z,8.86
2022-10-09T04:35:24.308Z,8.85
2022-10-09T04:37:56.045Z,8.84
2022-10-09T04:40:27.695Z,8.82
2022-10-09T04:42:59.472Z,8.80
2022-10-09T04:45:31.315Z,8.78
2022-10-09T04:48:03.176Z,8.76
2022-10-09T04:50:39.008Z,8.74
2022-10-09T04:53:10.746Z,8.70
2022-10-09T04:55:46.483Z,8.66
2022-10-09T04:58:18.161Z,8.62
2022-10-09T05:00:49.850Z,8.61
2022-10-09T05:03:21.632Z,8.58
2022-10-09T05:05:53.321Z,8.56
2022-10-09T05:08:25.040Z,8.58
2022-10-09T05:11:05.428Z,8.55
2022-10-09T05:13:40.393Z,8.51
2022-10-09T05:16:15.274Z,8.53
2022-10-09T05:18:49.460Z,8.55
2022-10-09T05:21:21.669Z,8.56
2022-10-09T05:23:54.868Z,8.54
2022-10-09T05:26:27.784Z,8.54
2022-10-09T05:28:59.742Z,8.55
2022-10-09T05:31:31.947Z,8.59
2022-10-09T05:34:09.704Z,8.61
2022-10-09T05:36:41.385Z,8.64
2022-10-09T05:39:13.240Z,8.67
2022-10-09T05:41:44.982Z,9.01
2022-10-09T05:44:16.767Z,9.97
2022-10-09T05:46:48.525Z,10.87
2022-10-09T05:49:20.313Z,11.47
2022-10-09T05:51:52.027Z,12.49
2022-10-09T05:54:23.816Z,13.55
2022-10-09T05:56:55.699Z,14.63
2022-10-09T05:59:27.942Z,15.73
2022-10-09T06:02:00.047Z,16.83
2022-10-09T06:04:31.961Z,17.92
2022-10-09T06:07:03.732Z,18.98
2022-10-09T06:09:35.466Z,19.98
2022-10-09T06:12:07.663Z,20.98
2022-10-09T06:14:39.359Z,21.79
2022-10-09T06:17:11.145Z,22.39
2022-10-09T06:19:42.877Z,22.94
2022-10-09T06:22:14.520Z,23.60
2022-10-09T06:24:46.204Z,24.25
2022-10-09T06:27:17.911Z,24.58
2022-10-09T06:29:49.639Z,24.90
2022-10-09T06:32:21.429Z,25.22
2022-10-09T06:34:53.532Z,25.69
2022-10-09T06:37:25.247Z,26.40
2022-10-09T06:39:56.979Z,26.49
2022-10-09T06:42:28.720Z,26.35
2022-10-09T06:45:02.672Z,26.41
2022-10-09T06:47:36.916Z,26.53
2022-10-09T06:50:09.358Z,26.82
2022-10-09T06:52:41.039Z,26.62
2022-10-09T06:55:15.786Z,25.99
2022-10-09T06:57:47.498Z,25.53
2022-10-09T07:00:19.203Z,25.31
2022-10-09T07:02:51.524Z,24.91
2022-10-09T07:05:23.925Z,24.77
2022-10-09T07:07:56.468Z,24.59
2022-10-09T07:10:28.159Z,24.76
2022-10-09T07:12:59.846Z,24.98
2022-10-09T07:15:31.679Z,24.80
2022-10-09T07:18:03.458Z,25.08
2022-10-09T07:20:36.384Z,24.45
2022-10-09T07:23:10.003Z,24.37
2022-10-09T07:25:44.407Z,24.51
2022-10-09T07:28:16.212Z,24.72
2022-10-09T07:30:48.116Z,24.66
2022-10-09T07:33:20.308Z,24.55
2022-10-09T07:35:56.570Z,24.50
2022-10-09T07:38:29.106Z,24.00
2022-10-09T07:41:03.113Z,24.34
2022-10-09T07:43:36.986Z,24.33
2022-10-09T07:46:12.863Z,23.95
2022-10-09T07:48:45.868Z,23.79
2022-10-09T07:51:20.628Z,23.34
2022-10-09T07:53:53.241Z,22.68
2022-10-09T07:56:31.164Z,22.79
2022-10-09T07:59:06.250Z,22.60
2022-10-09T08:01:39.133Z,22.62
2022-10-09T08:04:10.921Z,22.84
2022-10-09T08:06:42.783Z,23.46
2022-10-09T08:09:14.452Z,23.97
2022-10-09T08:11:49.025Z,24.41
2022-10-09T08:14:20.783Z,24.56
2022-10-09T08:16:52.683Z,24.83
2022-10-09T08:19:27.408Z,24.92
2022-10-09T08:22:02.639Z,24.99
2022-10-09T08:24:39.081Z,25.06
2022-10-09T08:27:11.971Z,24.64
2022-10-09T08:29:43.622Z,24.88
2022-10-09T08:32:15.329Z,25.20
2022-10-09T08:34:48.248Z,25.50
2022-10-09T08:37:20.016Z,25.80
2022-10-09T08:39:51.895Z,25.99
2022-10-09T08:42:42.956Z,26.02
2022-10-09T08:45:18.268Z,26.32
2022-10-09T08:48:01.257Z,26.67
2022-10-09T08:50:38.034Z,26.63
2022-10-09T08:53:47.418Z,26.18
2022-10-09T08:56:19.378Z,25.71
2022-10-09T08:58:51.085Z,25.86
2022-10-09T09:02:10.932Z,26.17
2022-10-09T09:05:05.173Z,26.37
2022-10-09T09:07:54.863Z,25.84
2022-10-09T09:10:32.223Z,25.53
2022-10-09T09:13:39.518Z,25.42
2022-10-09T09:16:21.321Z,24.76
2022-10-09T09:19:03.715Z,23.92
2022-10-09T09:21:48.525Z,24.50
2022-10-09T09:24:39.837Z,24.26
2022-10-09T09:27:16.131Z,24.29
2022-10-09T09:30:15.259Z,24.36
2022-10-09T09:32:56.999Z,24.62
2022-10-09T09:35:47.065Z,23.98
2022-10-09T09:38:18.805Z,23.39
2022-10-09T09:40:51.320Z,23.52
2022-10-09T09:43:25.707Z,23.89
2022-10-09T09:46:00.694Z,23.93
2022-10-09T09:48:34.727Z,23.82
2022-10-09T09:51:27.906Z,24.23
2022-10-09T09:54:15.296Z,23.97
2022-10-09T09:57:10.998Z,24.06
2022-10-09T09:59:43.155Z,24.12
2022-10-09T10:02:24.045Z,23.96
2022-10-09T10:04:59.704Z,23.89
2022-10-09T10:07:34.609Z,23.93
2022-10-09T10:10:15.612Z,23.80
2022-10-09T10:12:53.585Z,23.57
2022-10-09T10:15:28.645Z,23.54
2022-10-09T10:18:16.082Z,23.11
2022-10-09T10:20:57.003Z,22.47
2022-10-09T10:23:44.863Z,21.59
2022-10-09T10:26:31.994Z,21.26
2022-10-09T10:29:18.577Z,21.21
2022-10-09T10:32:16.007Z,21.44
2022-10-09T10:34:57.735Z,21.91
2022-10-09T10:38:07.085Z,22.21
2022-10-09T10:40:47.162Z,21.98
2022-10-09T10:43:32.715Z,22.01
2022-10-09T10:46:25.597Z,22.29
2022-10-09T10:49:00.042Z,22.61
2022-10-09T10:51:55.793Z,22.99
2022-10-09T10:54:40.545Z,23.01
2022-10-09T10:57:30.819Z,22.92
2022-10-09T11:00:07.859Z,22.16
2022-10-09T11:02:49.145Z,21.80
2022-10-09T11:05:25.482Z,21.63
2022-10-09T11:08:20.741Z,21.33
2022-10-09T11:11:16.932Z,21.69
2022-10-09T11:14:00.303Z,21.80
2022-10-09T11:16:38.025Z,21.37
2022-10-09T11:19:47.036Z,21.48
2022-10-09T11:22:32.132Z,22.18
2022-10-09T11:25:10.514Z,22.32
2022-10-09T11:28:03.571Z,22.24
2022-10-09T11:30:44.120Z,22.22
2022-10-09T11:33:43.986Z,22.64
2022-10-09T11:36:25.877Z,22.19
2022-10-09T11:39:06.361Z,22.22
2022-10-09T11:41:39.210Z,22.65
2022-10-09T11:44:52.005Z,22.50
2022-10-09T11:47:58.920Z,21.95
2022-10-09T11:50:36.451Z,21.15
2022-10-09T11:53:18.663Z,20.63
2022-10-09T11:56:02.313Z,20.72
2022-10-09T11:58:34.842Z,20.69
2022-10-09T12:01:40.686Z,20.95
2022-10-09T12:04:12.653Z,21.15
2022-10-09T12:07:00.741Z,20.84
2022-10-09T12:09:37.872Z,20.88
2022-10-09T12:12:15.554Z,20.81
2022-10-09T12:14:50.421Z,20.83
2022-10-09T12:17:22.120Z,21.00
2022-10-09T12:20:00.915Z,20.92
2022-10-09T12:22:42.867Z,20.89
2022-10-09T12:25:26.491Z,20.79
2022-10-09T12:28:00.376Z,20.41
2022-10-09T12:30:47.535Z,20.25
2022-10-09T12:33:34.951Z,20.11
2022-10-09T12:36:15.671Z,19.77
2022-10-09T12:38:49.512Z,19.74
2022-10-09T12:41:30.132Z,19.67
2022-10-09T12:44:29.283Z,19.86
2022-10-09T12:47:14.627Z,19.85
2022-10-09T12:50:18.502Z,19.83
2022-10-09T12:52:57.972Z,19.45
2022-10-09T12:55:41.979Z,19.48
2022-10-09T12:58:23.504Z,19.67
2022-10-09T13:00:58.275Z,19.47
2022-10-09T13:03:32.820Z,18.93
2022-10-09T13:06:05.758Z,18.62
2022-10-09T13:08:59.980Z,18.49
2022-10-09T13:11:33.657Z,18.57
2022-10-09T13:14:05.326Z,18.73
2022-10-09T13:16:43.187Z,18.84
2022-10-09T13:19:27.012Z,18.84
2022-10-09T13:22:07.587Z,18.82
2022-10-09T13:24:39.285Z,18.69
2022-10-09T13:27:14.694Z,18.67
2022-10-09T13:29:48.090Z,18.40
2022-10-09T13:32:24.346Z,18.11
2022-10-09T13:34:57.961Z,18.09
2022-10-09T13:37:29.738Z,18.28
2022-10-09T13:40:01.467Z,18.23
2022-10-09T13:42:39.421Z,18.08
2022-10-09T13:45:11.420Z,18.17
2022-10-09T13:47:43.083Z,18.25
2022-10-09T13:50:15.720Z,18.31
2022-10-09T13:52:47.551Z,18.37
2022-10-09T13:55:19.353Z,18.36
2022-10-09T13:57:51.671Z,18.35
2022-10-09T14:00:23.775Z,18.27
2022-10-09T14:02:55.512Z,17.97
2022-10-09T14:05:27.224Z,17.95
2022-10-09T14:07:59.219Z,17.80
2022-10-09T14:10:30.832Z,17.62
2022-10-09T14:13:02.741Z,17.61
2022-10-09T14:15:34.449Z,17.58
2022-10-09T14:18:06.445Z,17.71
2022-10-09T14:20:38.100Z,17.60
2022-10-09T14:23:09.859Z,17.53
2022-10-09T14:25:41.972Z,17.33
2022-10-09T14:28:13.759Z,17.11
2022-10-09T14:30:49.009Z,17.04
2022-10-09T14:33:20.887Z,17.01
2022-10-09T14:35:52.706Z,17.00
2022-10-09T14:38:24.848Z,16.91
2022-10-09T14:40:56.503Z,16.77
2022-10-09T14:43:28.264Z,16.84
2022-10-09T14:46:07.513Z,16.79
2022-10-09T14:48:39.997Z,16.70
2022-10-09T14:51:14.789Z,16.69
2022-10-09T14:53:47.234Z,16.63
2022-10-09T14:56:21.221Z,16.43
2022-10-09T14:58:53.867Z,16.32
2022-10-09T15:01:34.321Z,16.37
2022-10-09T15:04:07.013Z,16.20
2022-10-09T15:06:39.191Z,16.20
2022-10-09T15:09:11.128Z,16.18
2022-10-09T15:11:42.950Z,16.17
2022-10-09T15:14:14.748Z,16.12
2022-10-09T15:16:47.029Z,16.10
2022-10-09T15:19:19.119Z,16.03
2022-10-09T15:21:51.856Z,15.90
2022-10-09T15:24:23.658Z,15.78
2022-10-09T15:26:55.428Z,15.71
2022-10-09T15:29:27.154Z,15.56
2022-10-09T15:31:58.996Z,15.51
2022-10-09T15:34:30.974Z,15.57
2022-10-09T15:37:02.612Z,15.45
2022-10-09T15:39:35.121Z,15.33
2022-10-09T15:42:07.168Z,15.23
2022-10-09T15:44:41.392Z,15.18
2022-10-09T15:47:16.715Z,15.14
2022-10-09T15:49:53.228Z,15.11
2022-10-09T15:52:25.490Z,15.07
2022-10-09T15:54:57.181Z,15.04
2022-10-09T15:57:28.852Z,15.04
2022-10-09T16:00:03.215Z,15.01
2022-10-09T16:02:36.665Z,14.98
2022-10-09T16:05:09.163Z,14.95
2022-10-09T16:07:41.393Z,14.85
2022-10-09T16:10:13.104Z,14.85
2022-10-09T16:12:44.949Z,14.82
2022-10-09T16:15:16.886Z,14.77
2022-10-09T16:17:50.850Z,14.72
2022-10-09T16:20:22.676Z,14.70
2022-10-09T16:22:54.341Z,14.58
2022-10-09T16:25:26.272Z,14.56
2022-10-09T16:27:57.964Z,14.54
2022-10-09T16:30:29.728Z,14.51
2022-10-09T16:33:01.529Z,14.47
2022-10-09T16:35:33.317Z,14.46
2022-10-09T16:38:05.851Z,14.41
2022-10-09T16:43:36.739Z,14.31
2022-10-09T16:46:27.384Z,14.23
2022-10-09T16:49:01.123Z,14.20
2022-10-09T16:51:35.833Z,14.18
2022-10-09T16:54:07.527Z,14.13
2022-10-09T16:56:40.375Z,14.08
2022-10-09T16:59:13.062Z,14.06
2022-10-09T17:01:46.458Z,14.03
2022-10-09T17:04:18.174Z,13.97
2022-10-09T17:06:51.269Z,13.89
2022-10-09T17:09:23.181Z,13.86
2022-10-09T17:11:57.780Z,13.80
2022-10-09T17:14:31.401Z,13.75
2022-10-09T17:17:08.014Z,13.71
2022-10-09T17:19:40.616Z,13.65
2022-10-09T17:22:12.359Z,13.59
2022-10-09T17:24:44.039Z,13.55
2022-10-09T17:27:15.928Z,13.50
2022-10-09T17:29:47.696Z,13.46
2022-10-09T17:32:22.722Z,13.41
2022-10-09T17:34:54.426Z,13.35
2022-10-09T17:37:26.251Z,13.29
2022-10-09T17:39:57.886Z,13.24
2022-10-09T17:42:29.599Z,13.18
2022-10-09T17:45:02.056Z,13.14
2022-10-09T17:47:37.010Z,13.09
2022-10-09T17:50:09.082Z,13.02
2022-10-09T17:52:40.800Z,12.98
2022-10-09T17:55:12.571Z,12.93
2022-10-09T17:57:44.356Z,12.85
2022-10-09T18:00:22.490Z,12.80
2022-10-09T18:02:54.818Z,12.73
2022-10-09T18:05:26.680Z,12.71
2022-10-09T18:08:01.158Z,12.66
2022-10-09T18:10:32.973Z,12.60
2022-10-09T18:13:06.060Z,12.53
2022-10-09T18:15:38.742Z,12.48
2022-10-09T18:18:11.565Z,12.44
2022-10-09T18:20:43.234Z,12.40
2022-10-09T18:23:17.475Z,12.35
2022-10-09T18:25:54.951Z,12.32
2022-10-09T18:30:58.925Z,12.27
2022-10-09T18:33:30.685Z,12.25
2022-10-09T18:36:09.032Z,12.19
2022-10-09T18:38:40.739Z,12.18
2022-10-09T18:41:12.569Z,12.13
2022-10-09T18:43:44.643Z,12.07
2022-10-09T18:46:20.960Z,12.02
2022-10-09T18:48:54.536Z,11.94
2022-10-09T18:51:28.588Z,11.90
2022-10-09T18:54:03.689Z,11.88
2022-10-09T18:56:36.974Z,11.85
2022-10-09T18:59:13.028Z,11.82
2022-10-09T19:01:44.795Z,11.83
2022-10-09T19:04:17.040Z,11.79
2022-10-09T19:06:52.240Z,11.77
2022-10-09T19:09:24.049Z,11.75
2022-10-09T19:11:55.925Z,11.73
2022-10-09T19:14:27.995Z,11.69
2022-10-09T19:16:59.785Z,11.68
2022-10-09T19:19:32.113Z,11.65
2022-10-09T19:22:04.781Z,11.61
2022-10-09T19:24:36.685Z,11.60
2022-10-09T19:27:08.588Z,11.58
2022-10-09T19:29:40.627Z,11.56
2022-10-09T19:32:12.371Z,11.49
2022-10-09T19:34:47.890Z,11.42
2022-10-09T19:37:26.110Z,11.37
2022-10-09T19:40:01.497Z,11.34
2022-10-09T19:42:35.617Z,11.33
2022-10-09T19:45:08.025Z,11.29
2022-10-09T19:47:43.121Z,11.25
2022-10-09T19:50:15.174Z,11.22
2022-10-09T19:52:47.094Z,11.17
2022-10-09T19:55:19.054Z,11.13
2022-10-09T19:57:51.394Z,11.06
2022-10-09T20:00:26.421Z,10.96
2022-10-09T20:02:58.188Z,10.92
2022-10-09T20:05:30.220Z,10.90
2022-10-09T20:08:04.957Z,10.84
2022-10-09T20:10:38.445Z,10.80
2022-10-09T20:13:10.158Z,10.75
2022-10-09T20:15:42.779Z,10.73
2022-10-09T20:18:14.490Z,10.73
2022-10-09T20:20:48.402Z,10.67
2022-10-09T20:23:20.431Z,10.63
2022-10-09T20:26:06.212Z,10.60
2022-10-09T20:28:41.414Z,10.53
2022-10-09T20:31:20.815Z,10.50
2022-10-09T20:33:54.396Z,10.45
2022-10-09T20:36:27.684Z,10.39
2022-10-09T20:39:01.527Z,10.33
2022-10-09T20:41:33.854Z,10.32
2022-10-09T20:44:06.301Z,10.26
2022-10-09T20:46:39.663Z,10.24
2022-10-09T20:49:16.361Z,10.21
2022-10-09T20:51:48.190Z,10.18
2022-10-09T20:54:21.462Z,10.15
2022-10-09T20:56:53.378Z,10.11
2022-10-09T20:59:25.057Z,10.08
2022-10-09T21:01:56.952Z,10.07
2022-10-09T21:04:32.146Z,10.04
2022-10-09T21:07:04.103Z,9.97
2022-10-09T21:09:36.532Z,9.93
2022-10-09T21:12:08.519Z,9.90
2022-10-09T21:14:40.291Z,9.85
2022-10-09T21:17:13.099Z,9.81
2022-10-09T21:19:44.827Z,9.78
2022-10-09T21:22:16.943Z,9.74
2022-10-09T21:24:51.401Z,9.70
2022-10-09T21:27:23.159Z,9.67
2022-10-09T21:29:54.788Z,9.64
2022-10-09T21:32:26.577Z,9.62
2022-10-09T21:34:58.221Z,9.61
2022-10-09T21:37:30.057Z,9.59
2022-10-09T21:40:01.826Z,9.56
2022-10-09T21:42:33.613Z,9.51
2022-10-09T21:45:05.728Z,9.47
2022-10-09T21:47:37.474Z,9.40
2022-10-09T21:50:09.757Z,9.36
2022-10-09T21:52:41.463Z,9.34
2022-10-09T21:55:13.111Z,9.31
2022-10-09T21:57:45.285Z,9.28
2022-10-09T22:00:17.537Z,9.24
2022-10-09T22:02:49.493Z,9.20
2022-10-09T22:05:24.094Z,9.18
2022-10-09T22:07:55.744Z,9.13
2022-10-09T22:10:27.610Z,9.09
2022-10-09T22:12:59.254Z,9.04
2022-10-09T22:15:31.002Z,8.99
2022-10-09T22:18:02.734Z,8.95
2022-10-09T22:20:34.664Z,8.93
2022-10-09T22:23:06.408Z,8.88
2022-10-09T22:25:38.536Z,8.84
2022-10-09T22:28:10.248Z,8.84
2022-10-09T22:30:41.975Z,8.82
2022-10-09T22:33:13.708Z,8.78
2022-10-09T22:35:45.812Z,8.73
2022-10-09T22:38:17.503Z,8.71
2022-10-09T22:40:52.192Z,8.68
2022-10-09T22:43:26.764Z,8.63
2022-10-09T22:45:58.445Z,8.57
2022-10-09T22:48:30.244Z,8.55
2022-10-09T22:51:04.027Z,8.54
2022-10-09T22:53:37.043Z,8.50
2022-10-09T22:56:16.011Z,8.46
2022-10-09T22:58:49.339Z,8.46
2022-10-09T23:01:29.931Z,8.39
2022-10-09T23:04:11.166Z,8.37
2022-10-09T23:06:44.599Z,8.34
2022-10-09T23:09:16.372Z,8.30
2022-10-09T23:11:48.047Z,8.30
2022-10-09T23:14:20.063Z,8.29
2022-10-09T23:16:52.064Z,8.28
2022-10-09T23:19:23.820Z,8.27
2022-10-09T23:21:55.405Z,8.29
2022-10-09T23:24:27.075Z,8.28
2022-10-09T23:26:58.762Z,8.22
2022-10-09T23:29:30.449Z,8.19
2022-10-09T23:32:02.073Z,8.17
2022-10-09T23:34:33.833Z,8.17
2022-10-09T23:37:05.541Z,8.10
2022-10-09T23:39:37.223Z,8.07
2022-10-09T23:42:08.920Z,8.04
2022-10-09T23:44:40.750Z,8.04
2022-10-09T23:47:12.496Z,8.02
2022-10-09T23:49:44.204Z,8.01
2022-10-09T23:52:15.823Z,7.98
2022-10-09T23:54:47.611Z,7.97
2022-10-09T23:57:19.235Z,7.94
2022-10-09T23:59:50.937Z,7.91
